sensor_id;sensor_type;location;lat;lon;timestamp;P1;durP1;ratioP1;P2;durP2;ratioP2
35606;SDS011;21729;58.392;15.656;2023-03-07T00:02:04;5.40;;;1.95;;
35606;SDS011;21729;58.392;15.656;2023-03-07T00:04:31;5.50;;;2.00;;
35606;SDS011;21729;58.392;15.656;2023-03-07T00:07:00;4.25;;;1.83;;
35606;SDS011;21729;58.392;15.656;2023-03-07T00:09:27;5.55;;;2.10;;
35606;SDS011;21729;58.392;15.656;2023-03-07T00:11:54;4.30;;;1.80;;
35606;SDS011;21729;58.392;15.656;2023-03-07T00:14:21;5.63;;;1.95;;
35606;SDS011;21729;58.392;15.656;2023-03-07T00:16:48;4.30;;;1.88;;
35606;SDS011;21729;58.392;15.656;2023-03-07T00:19:16;5.85;;;1.83;;
35606;SDS011;21729;58.392;15.656;2023-03-07T00:21:44;4.72;;;1.95;;
35606;SDS011;21729;58.392;15.656;2023-03-07T00:24:12;4.35;;;1.73;;
35606;SDS011;21729;58.392;15.656;2023-03-07T00:26:39;4.07;;;1.80;;
35606;SDS011;21729;58.392;15.656;2023-03-07T00:29:07;5.75;;;2.03;;
35606;SDS011;21729;58.392;15.656;2023-03-07T00:31:35;3.87;;;1.80;;
35606;SDS011;21729;58.392;15.656;2023-03-07T00:34:02;4.97;;;2.00;;
35606;SDS011;21729;58.392;15.656;2023-03-07T00:36:30;4.27;;;1.90;;
35606;SDS011;21729;58.392;15.656;2023-03-07T00:38:57;2.88;;;1.60;;
35606;SDS011;21729;58.392;15.656;2023-03-07T00:41:26;3.83;;;1.65;;
35606;SDS011;21729;58.392;15.656;2023-03-07T00:43:54;3.38;;;1.90;;
35606;SDS011;21729;58.392;15.656;2023-03-07T00:46:22;2.60;;;1.90;;
35606;SDS011;21729;58.392;15.656;2023-03-07T00:48:50;3.05;;;1.90;;
35606;SDS011;21729;58.392;15.656;2023-03-07T00:51:18;3.30;;;1.67;;
35606;SDS011;21729;58.392;15.656;2023-03-07T00:53:46;3.22;;;1.77;;
35606;SDS011;21729;58.392;15.656;2023-03-07T00:56:13;3.85;;;2.00;;
35606;SDS011;21729;58.392;15.656;2023-03-07T00:58:43;3.00;;;1.60;;
35606;SDS011;21729;58.392;15.656;2023-03-07T01:01:12;3.43;;;2.03;;
35606;SDS011;21729;58.392;15.656;2023-03-07T01:03:40;3.93;;;2.00;;
35606;SDS011;21729;58.392;15.656;2023-03-07T01:06:08;3.10;;;1.90;;
35606;SDS011;21729;58.392;15.656;2023-03-07T01:08:38;2.60;;;1.80;;
35606;SDS011;21729;58.392;15.656;2023-03-07T01:11:06;2.65;;;1.85;;
35606;SDS011;21729;58.392;15.656;2023-03-07T01:13:34;3.27;;;1.63;;
35606;SDS011;21729;58.392;15.656;2023-03-07T01:16:07;3.10;;;1.90;;
35606;SDS011;21729;58.392;15.656;2023-03-07T01:18:35;3.37;;;1.67;;
35606;SDS011;21729;58.392;15.656;2023-03-07T01:21:09;2.53;;;1.80;;
35606;SDS011;21729;58.392;15.656;2023-03-07T01:23:37;3.55;;;1.90;;
35606;SDS011;21729;58.392;15.656;2023-03-07T01:26:04;4.70;;;1.52;;
35606;SDS011;21729;58.392;15.656;2023-03-07T01:28:31;3.95;;;1.80;;
35606;SDS011;21729;58.392;15.656;2023-03-07T01:30:59;3.60;;;1.90;;
35606;SDS011;21729;58.392;15.656;2023-03-07T01:33:27;4.28;;;1.88;;
35606;SDS011;21729;58.392;15.656;2023-03-07T01:35:54;2.97;;;1.50;;
35606;SDS011;21729;58.392;15.656;2023-03-07T01:38:21;3.50;;;1.77;;
35606;SDS011;21729;58.392;15.656;2023-03-07T01:40:49;3.55;;;1.80;;
35606;SDS011;21729;58.392;15.656;2023-03-07T01:43:23;2.92;;;1.70;;
35606;SDS011;21729;58.392;15.656;2023-03-07T01:49:05;4.85;;;1.98;;
35606;SDS011;21729;58.392;15.656;2023-03-07T01:51:36;2.33;;;1.87;;
35606;SDS011;21729;58.392;15.656;2023-03-07T01:54:06;2.60;;;1.70;;
35606;SDS011;21729;58.392;15.656;2023-03-07T01:56:36;3.33;;;1.77;;
35606;SDS011;21729;58.392;15.656;2023-03-07T01:59:04;4.30;;;1.95;;
35606;SDS011;21729;58.392;15.656;2023-03-07T02:01:32;4.50;;;2.00;;
35606;SDS011;21729;58.392;15.656;2023-03-07T02:04:00;2.85;;;1.70;;
35606;SDS011;21729;58.392;15.656;2023-03-07T02:06:36;3.28;;;1.90;;
35606;SDS011;21729;58.392;15.656;2023-03-07T02:09:04;3.65;;;1.63;;
35606;SDS011;21729;58.392;15.656;2023-03-07T02:11:37;2.50;;;1.70;;
35606;SDS011;21729;58.392;15.656;2023-03-07T02:14:05;2.88;;;1.70;;
35606;SDS011;21729;58.392;15.656;2023-03-07T02:16:33;3.47;;;1.80;;
35606;SDS011;21729;58.392;15.656;2023-03-07T02:19:01;4.80;;;1.80;;
35606;SDS011;21729;58.392;15.656;2023-03-07T02:21:31;3.58;;;1.70;;
35606;SDS011;21729;58.392;15.656;2023-03-07T02:24:06;2.50;;;1.80;;
35606;SDS011;21729;58.392;15.656;2023-03-07T02:26:44;5.35;;;1.75;;
35606;SDS011;21729;58.392;15.656;2023-03-07T02:29:12;3.30;;;1.70;;
35606;SDS011;21729;58.392;15.656;2023-03-07T02:31:40;3.58;;;1.95;;
35606;SDS011;21729;58.392;15.656;2023-03-07T02:34:17;2.72;;;1.88;;
35606;SDS011;21729;58.392;15.656;2023-03-07T02:36:46;2.53;;;1.70;;
35606;SDS011;21729;58.392;15.656;2023-03-07T02:39:15;3.03;;;1.80;;
35606;SDS011;21729;58.392;15.656;2023-03-07T02:41:47;2.38;;;1.83;;
35606;SDS011;21729;58.392;15.656;2023-03-07T02:44:17;2.65;;;1.70;;
35606;SDS011;21729;58.392;15.656;2023-03-07T02:46:47;2.92;;;1.85;;
35606;SDS011;21729;58.392;15.656;2023-03-07T02:49:14;2.20;;;1.60;;
35606;SDS011;21729;58.392;15.656;2023-03-07T02:51:42;2.47;;;1.73;;
35606;SDS011;21729;58.392;15.656;2023-03-07T02:54:09;4.18;;;1.63;;
35606;SDS011;21729;58.392;15.656;2023-03-07T02:56:36;2.22;;;1.67;;
35606;SDS011;21729;58.392;15.656;2023-03-07T02:59:05;3.20;;;1.77;;
35606;SDS011;21729;58.392;15.656;2023-03-07T03:01:32;3.63;;;1.60;;
35606;SDS011;21729;58.392;15.656;2023-03-07T03:03:59;2.58;;;1.70;;
35606;SDS011;21729;58.392;15.656;2023-03-07T03:06:26;1.67;;;1.50;;
35606;SDS011;21729;58.392;15.656;2023-03-07T03:08:53;2.35;;;1.55;;
35606;SDS011;21729;58.392;15.656;2023-03-07T03:11:20;2.30;;;1.50;;
35606;SDS011;21729;58.392;15.656;2023-03-07T03:13:47;2.85;;;1.63;;
35606;SDS011;21729;58.392;15.656;2023-03-07T03:16:16;2.63;;;1.65;;
35606;SDS011;21729;58.392;15.656;2023-03-07T03:18:43;2.17;;;1.70;;
35606;SDS011;21729;58.392;15.656;2023-03-07T03:21:11;3.60;;;1.60;;
35606;SDS011;21729;58.392;15.656;2023-03-07T03:23:39;2.13;;;1.60;;
35606;SDS011;21729;58.392;15.656;2023-03-07T03:26:07;2.35;;;1.60;;
35606;SDS011;21729;58.392;15.656;2023-03-07T03:28:36;3.80;;;1.60;;
35606;SDS011;21729;58.392;15.656;2023-03-07T03:31:05;2.75;;;1.52;;
35606;SDS011;21729;58.392;15.656;2023-03-07T03:33:34;1.92;;;1.50;;
35606;SDS011;21729;58.392;15.656;2023-03-07T03:36:04;3.35;;;1.60;;
35606;SDS011;21729;58.392;15.656;2023-03-07T03:38:33;4.93;;;1.52;;
35606;SDS011;21729;58.392;15.656;2023-03-07T03:41:02;1.77;;;1.40;;
35606;SDS011;21729;58.392;15.656;2023-03-07T03:43:30;3.38;;;1.60;;
35606;SDS011;21729;58.392;15.656;2023-03-07T03:45:57;5.00;;;1.60;;
35606;SDS011;21729;58.392;15.656;2023-03-07T03:48:25;4.80;;;1.70;;
35606;SDS011;21729;58.392;15.656;2023-03-07T03:51:00;2.15;;;1.40;;
35606;SDS011;21729;58.392;15.656;2023-03-07T03:53:29;3.65;;;1.58;;
35606;SDS011;21729;58.392;15.656;2023-03-07T03:56:00;4.30;;;1.75;;
35606;SDS011;21729;58.392;15.656;2023-03-07T03:58:28;3.72;;;1.70;;
35606;SDS011;21729;58.392;15.656;2023-03-07T04:00:55;2.15;;;1.60;;
35606;SDS011;21729;58.392;15.656;2023-03-07T04:03:23;2.35;;;1.60;;
35606;SDS011;21729;58.392;15.656;2023-03-07T04:05:50;2.70;;;1.70;;
35606;SDS011;21729;58.392;15.656;2023-03-07T04:08:18;2.35;;;1.70;;
35606;SDS011;21729;58.392;15.656;2023-03-07T04:10:46;2.45;;;1.60;;
35606;SDS011;21729;58.392;15.656;2023-03-07T04:13:13;2.47;;;1.80;;
35606;SDS011;21729;58.392;15.656;2023-03-07T04:15:40;2.78;;;1.70;;
35606;SDS011;21729;58.392;15.656;2023-03-07T04:18:08;3.13;;;1.60;;
35606;SDS011;21729;58.392;15.656;2023-03-07T04:20:35;2.10;;;1.77;;
35606;SDS011;21729;58.392;15.656;2023-03-07T04:23:02;2.33;;;1.70;;
35606;SDS011;21729;58.392;15.656;2023-03-07T04:25:31;2.83;;;1.75;;
35606;SDS011;21729;58.392;15.656;2023-03-07T04:27:58;3.28;;;1.63;;
35606;SDS011;21729;58.392;15.656;2023-03-07T04:30:25;2.47;;;1.50;;
35606;SDS011;21729;58.392;15.656;2023-03-07T04:32:52;2.75;;;1.70;;
35606;SDS011;21729;58.392;15.656;2023-03-07T04:35:19;1.95;;;1.38;;
35606;SDS011;21729;58.392;15.656;2023-03-07T04:37:47;2.30;;;1.60;;
35606;SDS011;21729;58.392;15.656;2023-03-07T04:40:14;2.33;;;1.60;;
35606;SDS011;21729;58.392;15.656;2023-03-07T04:42:43;2.38;;;1.55;;
35606;SDS011;21729;58.392;15.656;2023-03-07T04:45:10;3.08;;;1.63;;
35606;SDS011;21729;58.392;15.656;2023-03-07T04:47:37;2.47;;;1.40;;
35606;SDS011;21729;58.392;15.656;2023-03-07T04:50:05;1.85;;;1.40;;
35606;SDS011;21729;58.392;15.656;2023-03-07T04:52:33;2.97;;;1.55;;
35606;SDS011;21729;58.392;15.656;2023-03-07T04:55:00;2.80;;;1.70;;
35606;SDS011;21729;58.392;15.656;2023-03-07T04:57:27;2.58;;;1.52;;
35606;SDS011;21729;58.392;15.656;2023-03-07T04:59:55;2.10;;;1.50;;
35606;SDS011;21729;58.392;15.656;2023-03-07T05:02:23;3.80;;;1.80;;
35606;SDS011;21729;58.392;15.656;2023-03-07T05:04:50;2.07;;;1.60;;
35606;SDS011;21729;58.392;15.656;2023-03-07T05:07:17;3.90;;;1.80;;
35606;SDS011;21729;58.392;15.656;2023-03-07T05:09:44;2.28;;;1.58;;
35606;SDS011;21729;58.392;15.656;2023-03-07T05:12:11;1.63;;;1.38;;
35606;SDS011;21729;58.392;15.656;2023-03-07T05:14:38;2.03;;;1.35;;
35606;SDS011;21729;58.392;15.656;2023-03-07T05:17:12;2.40;;;1.53;;
35606;SDS011;21729;58.392;15.656;2023-03-07T05:19:39;2.85;;;1.60;;
35606;SDS011;21729;58.392;15.656;2023-03-07T05:22:06;3.15;;;1.50;;
35606;SDS011;21729;58.392;15.656;2023-03-07T05:24:34;3.38;;;1.50;;
35606;SDS011;21729;58.392;15.656;2023-03-07T05:27:01;2.35;;;1.40;;
35606;SDS011;21729;58.392;15.656;2023-03-07T05:29:28;2.70;;;1.40;;
35606;SDS011;21729;58.392;15.656;2023-03-07T05:31:55;3.00;;;1.30;;
35606;SDS011;21729;58.392;15.656;2023-03-07T05:34:24;3.50;;;1.42;;
35606;SDS011;21729;58.392;15.656;2023-03-07T05:36:51;2.90;;;1.25;;
35606;SDS011;21729;58.392;15.656;2023-03-07T05:39:18;4.10;;;1.30;;
35606;SDS011;21729;58.392;15.656;2023-03-07T05:41:46;3.20;;;1.27;;
35606;SDS011;21729;58.392;15.656;2023-03-07T05:44:13;1.20;;;1.10;;
35606;SDS011;21729;58.392;15.656;2023-03-07T05:46:40;2.70;;;1.20;;
35606;SDS011;21729;58.392;15.656;2023-03-07T05:49:07;2.38;;;1.25;;
35606;SDS011;21729;58.392;15.656;2023-03-07T05:51:36;4.22;;;1.60;;
35606;SDS011;21729;58.392;15.656;2023-03-07T05:54:03;1.57;;;1.30;;
35606;SDS011;21729;58.392;15.656;2023-03-07T05:56:30;2.22;;;1.30;;
35606;SDS011;21729;58.392;15.656;2023-03-07T05:58:58;2.93;;;1.20;;
35606;SDS011;21729;58.392;15.656;2023-03-07T06:01:25;1.67;;;1.15;;
35606;SDS011;21729;58.392;15.656;2023-03-07T06:03:52;3.83;;;1.10;;
35606;SDS011;21729;58.392;15.656;2023-03-07T06:06:19;2.30;;;1.10;;
35606;SDS011;21729;58.392;15.656;2023-03-07T06:08:47;4.15;;;1.45;;
35606;SDS011;21729;58.392;15.656;2023-03-07T06:11:15;2.88;;;1.40;;
35606;SDS011;21729;58.392;15.656;2023-03-07T06:13:42;3.45;;;1.27;;
35606;SDS011;21729;58.392;15.656;2023-03-07T06:16:09;2.20;;;1.40;;
35606;SDS011;21729;58.392;15.656;2023-03-07T06:18:36;3.95;;;1.40;;
35606;SDS011;21729;58.392;15.656;2023-03-07T06:21:04;2.60;;;1.67;;
35606;SDS011;21729;58.392;15.656;2023-03-07T06:23:33;2.30;;;1.20;;
35606;SDS011;21729;58.392;15.656;2023-03-07T06:26:03;3.20;;;1.15;;
35606;SDS011;21729;58.392;15.656;2023-03-07T06:28:31;2.63;;;1.00;;
35606;SDS011;21729;58.392;15.656;2023-03-07T06:30:59;1.52;;;1.20;;
35606;SDS011;21729;58.392;15.656;2023-03-07T06:33:26;1.70;;;1.00;;
35606;SDS011;21729;58.392;15.656;2023-03-07T06:35:53;1.05;;;1.00;;
35606;SDS011;21729;58.392;15.656;2023-03-07T06:38:20;2.30;;;0.97;;
35606;SDS011;21729;58.392;15.656;2023-03-07T06:40:53;3.15;;;1.17;;
35606;SDS011;21729;58.392;15.656;2023-03-07T06:43:22;1.80;;;1.02;;
35606;SDS011;21729;58.392;15.656;2023-03-07T06:45:49;2.92;;;1.10;;
35606;SDS011;21729;58.392;15.656;2023-03-07T06:48:16;1.13;;;1.00;;
35606;SDS011;21729;58.392;15.656;2023-03-07T06:50:43;3.95;;;1.08;;
35606;SDS011;21729;58.392;15.656;2023-03-07T06:53:11;2.85;;;1.13;;
35606;SDS011;21729;58.392;15.656;2023-03-07T06:55:38;1.75;;;1.00;;
35606;SDS011;21729;58.392;15.656;2023-03-07T06:58:05;2.80;;;0.90;;
35606;SDS011;21729;58.392;15.656;2023-03-07T07:00:33;2.40;;;0.90;;
35606;SDS011;21729;58.392;15.656;2023-03-07T07:03:01;2.60;;;1.10;;
35606;SDS011;21729;58.392;15.656;2023-03-07T07:05:28;1.40;;;0.90;;
35606;SDS011;21729;58.392;15.656;2023-03-07T07:07:55;1.20;;;0.95;;
35606;SDS011;21729;58.392;15.656;2023-03-07T07:10:22;1.33;;;0.90;;
35606;SDS011;21729;58.392;15.656;2023-03-07T07:12:49;1.83;;;0.80;;
35606;SDS011;21729;58.392;15.656;2023-03-07T07:15:20;2.05;;;0.80;;
35606;SDS011;21729;58.392;15.656;2023-03-07T07:17:50;2.40;;;0.93;;
35606;SDS011;21729;58.392;15.656;2023-03-07T07:20:18;1.27;;;0.70;;
35606;SDS011;21729;58.392;15.656;2023-03-07T07:22:45;1.80;;;0.88;;
35606;SDS011;21729;58.392;15.656;2023-03-07T07:25:12;0.88;;;0.88;;
35606;SDS011;21729;58.392;15.656;2023-03-07T07:27:39;0.80;;;0.70;;
35606;SDS011;21729;58.392;15.656;2023-03-07T07:30:07;0.80;;;0.80;;
35606;SDS011;21729;58.392;15.656;2023-03-07T07:32:37;1.65;;;0.80;;
35606;SDS011;21729;58.392;15.656;2023-03-07T07:35:06;2.38;;;0.80;;
35606;SDS011;21729;58.392;15.656;2023-03-07T07:37:33;2.20;;;0.80;;
35606;SDS011;21729;58.392;15.656;2023-03-07T07:40:01;1.40;;;0.80;;
35606;SDS011;21729;58.392;15.656;2023-03-07T07:42:29;1.60;;;0.80;;
35606;SDS011;21729;58.392;15.656;2023-03-07T07:44:56;2.55;;;0.73;;
35606;SDS011;21729;58.392;15.656;2023-03-07T07:47:23;1.00;;;0.70;;
35606;SDS011;21729;58.392;15.656;2023-03-07T07:49:50;1.30;;;1.10;;
35606;SDS011;21729;58.392;15.656;2023-03-07T07:52:19;3.97;;;0.90;;
35606;SDS011;21729;58.392;15.656;2023-03-07T07:54:46;3.65;;;0.80;;
35606;SDS011;21729;58.392;15.656;2023-03-07T07:57:13;1.00;;;0.70;;
35606;SDS011;21729;58.392;15.656;2023-03-07T07:59:41;3.17;;;0.95;;
35606;SDS011;21729;58.392;15.656;2023-03-07T08:02:09;2.53;;;0.77;;
35606;SDS011;21729;58.392;15.656;2023-03-07T08:04:38;1.00;;;0.80;;
35606;SDS011;21729;58.392;15.656;2023-03-07T08:07:05;1.45;;;0.75;;
35606;SDS011;21729;58.392;15.656;2023-03-07T08:09:34;0.80;;;0.80;;
35606;SDS011;21729;58.392;15.656;2023-03-07T08:12:03;2.45;;;1.00;;
35606;SDS011;21729;58.392;15.656;2023-03-07T08:14:31;1.85;;;0.70;;
35606;SDS011;21729;58.392;15.656;2023-03-07T08:16:58;3.25;;;1.05;;
35606;SDS011;21729;58.392;15.656;2023-03-07T08:19:26;1.90;;;0.73;;
35606;SDS011;21729;58.392;15.656;2023-03-07T08:21:53;1.27;;;0.90;;
35606;SDS011;21729;58.392;15.656;2023-03-07T08:24:20;1.30;;;1.00;;
35606;SDS011;21729;58.392;15.656;2023-03-07T08:26:49;0.90;;;0.70;;
35606;SDS011;21729;58.392;15.656;2023-03-07T08:29:16;0.93;;;0.70;;
35606;SDS011;21729;58.392;15.656;2023-03-07T08:31:43;0.93;;;0.70;;
35606;SDS011;21729;58.392;15.656;2023-03-07T08:34:15;1.10;;;0.80;;
35606;SDS011;21729;58.392;15.656;2023-03-07T08:36:42;0.70;;;0.60;;
35606;SDS011;21729;58.392;15.656;2023-03-07T08:39:09;1.05;;;0.80;;
35606;SDS011;21729;58.392;15.656;2023-03-07T08:41:37;3.38;;;0.90;;
35606;SDS011;21729;58.392;15.656;2023-03-07T08:44:06;0.85;;;0.70;;
35606;SDS011;21729;58.392;15.656;2023-03-07T08:46:33;3.15;;;1.00;;
35606;SDS011;21729;58.392;15.656;2023-03-07T08:49:00;1.45;;;0.85;;
35606;SDS011;21729;58.392;15.656;2023-03-07T08:51:27;1.40;;;0.90;;
35606;SDS011;21729;58.392;15.656;2023-03-07T08:53:56;2.05;;;0.90;;
35606;SDS011;21729;58.392;15.656;2023-03-07T08:56:23;2.55;;;1.00;;
35606;SDS011;21729;58.392;15.656;2023-03-07T08:58:51;1.42;;;0.98;;
35606;SDS011;21729;58.392;15.656;2023-03-07T09:01:20;1.38;;;0.88;;
35606;SDS011;21729;58.392;15.656;2023-03-07T09:03:47;1.00;;;0.90;;
35606;SDS011;21729;58.392;15.656;2023-03-07T09:06:15;0.80;;;0.70;;
35606;SDS011;21729;58.392;15.656;2023-03-07T09:08:44;2.10;;;0.65;;
35606;SDS011;21729;58.392;15.656;2023-03-07T09:11:11;1.58;;;0.75;;
35606;SDS011;21729;58.392;15.656;2023-03-07T09:13:39;0.70;;;0.70;;
35606;SDS011;21729;58.392;15.656;2023-03-07T09:16:06;1.02;;;0.80;;
35606;SDS011;21729;58.392;15.656;2023-03-07T09:18:35;0.90;;;0.90;;
35606;SDS011;21729;58.392;15.656;2023-03-07T09:21:03;1.17;;;0.70;;
35606;SDS011;21729;58.392;15.656;2023-03-07T09:23:31;0.82;;;0.77;;
35606;SDS011;21729;58.392;15.656;2023-03-07T09:25:58;1.70;;;0.80;;
35606;SDS011;21729;58.392;15.656;2023-03-07T09:28:26;1.30;;;0.90;;
35606;SDS011;21729;58.392;15.656;2023-03-07T09:30:53;0.80;;;0.80;;
35606;SDS011;21729;58.392;15.656;2023-03-07T09:33:20;1.00;;;0.80;;
35606;SDS011;21729;58.392;15.656;2023-03-07T09:35:48;1.60;;;1.00;;
35606;SDS011;21729;58.392;15.656;2023-03-07T09:38:15;1.08;;;0.85;;
35606;SDS011;21729;58.392;15.656;2023-03-07T09:40:43;3.10;;;0.88;;
35606;SDS011;21729;58.392;15.656;2023-03-07T09:43:14;0.80;;;0.80;;
35606;SDS011;21729;58.392;15.656;2023-03-07T09:45:53;1.10;;;0.90;;
35606;SDS011;21729;58.392;15.656;2023-03-07T09:51:20;2.20;;;0.90;;
35606;SDS011;21729;58.392;15.656;2023-03-07T09:53:51;2.45;;;0.90;;
35606;SDS011;21729;58.392;15.656;2023-03-07T09:56:21;0.77;;;0.70;;
35606;SDS011;21729;58.392;15.656;2023-03-07T09:58:54;1.77;;;0.98;;
35606;SDS011;21729;58.392;15.656;2023-03-07T10:01:26;1.15;;;0.80;;
35606;SDS011;21729;58.392;15.656;2023-03-07T10:03:58;1.10;;;0.80;;
35606;SDS011;21729;58.392;15.656;2023-03-07T10:06:31;2.50;;;0.80;;
35606;SDS011;21729;58.392;15.656;2023-03-07T10:09:03;1.40;;;0.70;;
35606;SDS011;21729;58.392;15.656;2023-03-07T10:11:41;0.80;;;0.80;;
35606;SDS011;21729;58.392;15.656;2023-03-07T10:14:33;1.07;;;0.77;;
35606;SDS011;21729;58.392;15.656;2023-03-07T10:17:20;1.20;;;0.90;;
35606;SDS011;21729;58.392;15.656;2023-03-07T10:19:55;1.45;;;0.90;;
35606;SDS011;21729;58.392;15.656;2023-03-07T10:22:33;1.33;;;0.80;;
35606;SDS011;21729;58.392;15.656;2023-03-07T10:25:08;1.77;;;0.90;;
35606;SDS011;21729;58.392;15.656;2023-03-07T10:27:44;0.95;;;0.70;;
35606;SDS011;21729;58.392;15.656;2023-03-07T10:30:14;1.60;;;0.75;;
35606;SDS011;21729;58.392;15.656;2023-03-07T10:32:43;1.97;;;0.70;;
35606;SDS011;21729;58.392;15.656;2023-03-07T10:35:16;1.95;;;0.90;;
35606;SDS011;21729;58.392;15.656;2023-03-07T10:37:47;0.77;;;0.77;;
35606;SDS011;21729;58.392;15.656;2023-03-07T10:40:26;0.80;;;0.60;;
35606;SDS011;21729;58.392;15.656;2023-03-07T10:42:58;0.85;;;0.60;;
35606;SDS011;21729;58.392;15.656;2023-03-07T10:45:26;1.17;;;0.63;;
35606;SDS011;21729;58.392;15.656;2023-03-07T10:47:56;1.50;;;0.70;;
35606;SDS011;21729;58.392;15.656;2023-03-07T10:50:30;1.20;;;0.70;;
35606;SDS011;21729;58.392;15.656;2023-03-07T10:53:06;1.17;;;0.50;;
35606;SDS011;21729;58.392;15.656;2023-03-07T10:55:44;1.77;;;0.70;;
35606;SDS011;21729;58.392;15.656;2023-03-07T10:58:18;1.20;;;0.50;;
35606;SDS011;21729;58.392;15.656;2023-03-07T11:00:58;0.70;;;0.60;;
35606;SDS011;21729;58.392;15.656;2023-03-07T11:03:28;2.70;;;0.70;;
35606;SDS011;21729;58.392;15.656;2023-03-07T11:05:59;1.25;;;0.60;;
35606;SDS011;21729;58.392;15.656;2023-03-07T11:08:29;1.25;;;0.55;;
35606;SDS011;21729;58.392;15.656;2023-03-07T11:10:57;0.98;;;0.70;;
35606;SDS011;21729;58.392;15.656;2023-03-07T11:13:25;0.88;;;0.63;;
35606;SDS011;21729;58.392;15.656;2023-03-07T11:16:07;1.83;;;0.77;;
35606;SDS011;21729;58.392;15.656;2023-03-07T11:18:39;2.55;;;0.70;;
35606;SDS011;21729;58.392;15.656;2023-03-07T11:21:23;0.98;;;0.70;;
35606;SDS011;21729;58.392;15.656;2023-03-07T11:23:58;2.83;;;0.80;;
35606;SDS011;21729;58.392;15.656;2023-03-07T11:26:28;1.98;;;0.65;;
35606;SDS011;21729;58.392;15.656;2023-03-07T11:29:04;2.63;;;0.88;;
35606;SDS011;21729;58.392;15.656;2023-03-07T11:31:34;2.73;;;0.80;;
35606;SDS011;21729;58.392;15.656;2023-03-07T11:34:12;4.80;;;0.80;;
35606;SDS011;21729;58.392;15.656;2023-03-07T11:36:53;1.80;;;0.95;;
35606;SDS011;21729;58.392;15.656;2023-03-07T11:39:26;1.75;;;0.70;;
35606;SDS011;21729;58.392;15.656;2023-03-07T11:41:59;2.30;;;0.75;;
35606;SDS011;21729;58.392;15.656;2023-03-07T11:44:35;2.60;;;0.90;;
35606;SDS011;21729;58.392;15.656;2023-03-07T11:47:12;1.42;;;0.80;;
35606;SDS011;21729;58.392;15.656;2023-03-07T11:49:55;1.60;;;1.08;;
35606;SDS011;21729;58.392;15.656;2023-03-07T11:52:36;1.42;;;0.90;;
35606;SDS011;21729;58.392;15.656;2023-03-07T11:55:23;1.90;;;1.00;;
35606;SDS011;21729;58.392;15.656;2023-03-07T11:57:57;1.80;;;1.10;;
35606;SDS011;21729;58.392;15.656;2023-03-07T12:00:43;2.45;;;0.80;;
35606;SDS011;21729;58.392;15.656;2023-03-07T12:06:20;1.52;;;1.10;;
35606;SDS011;21729;58.392;15.656;2023-03-07T12:08:57;3.10;;;0.95;;
35606;SDS011;21729;58.392;15.656;2023-03-07T12:14:45;1.00;;;0.80;;
35606;SDS011;21729;58.392;15.656;2023-03-07T12:17:22;2.00;;;0.95;;
35606;SDS011;21729;58.392;15.656;2023-03-07T12:20:06;2.20;;;0.90;;
35606;SDS011;21729;58.392;15.656;2023-03-07T12:22:53;1.50;;;0.88;;
35606;SDS011;21729;58.392;15.656;2023-03-07T12:25:28;1.80;;;0.90;;
35606;SDS011;21729;58.392;15.656;2023-03-07T12:28:04;3.80;;;0.80;;
35606;SDS011;21729;58.392;15.656;2023-03-07T12:30:43;1.42;;;0.88;;
35606;SDS011;21729;58.392;15.656;2023-03-07T12:33:19;1.53;;;0.80;;
35606;SDS011;21729;58.392;15.656;2023-03-07T12:35:52;3.25;;;0.95;;
35606;SDS011;21729;58.392;15.656;2023-03-07T12:38:25;0.98;;;0.88;;
35606;SDS011;21729;58.392;15.656;2023-03-07T12:41:00;2.10;;;0.88;;
35606;SDS011;21729;58.392;15.656;2023-03-07T12:43:35;2.20;;;1.10;;
35606;SDS011;21729;58.392;15.656;2023-03-07T12:46:08;3.13;;;0.90;;
35606;SDS011;21729;58.392;15.656;2023-03-07T12:48:43;2.05;;;1.05;;
35606;SDS011;21729;58.392;15.656;2023-03-07T12:51:17;3.40;;;1.20;;
35606;SDS011;21729;58.392;15.656;2023-03-07T12:53:48;1.55;;;1.05;;
35606;SDS011;21729;58.392;15.656;2023-03-07T12:56:21;1.42;;;0.90;;
35606;SDS011;21729;58.392;15.656;2023-03-07T12:58:55;1.30;;;0.90;;
35606;SDS011;21729;58.392;15.656;2023-03-07T13:01:27;1.02;;;0.80;;
35606;SDS011;21729;58.392;15.656;2023-03-07T13:03:59;1.20;;;0.85;;
35606;SDS011;21729;58.392;15.656;2023-03-07T13:06:32;2.53;;;0.90;;
35606;SDS011;21729;58.392;15.656;2023-03-07T13:09:03;2.03;;;0.80;;
35606;SDS011;21729;58.392;15.656;2023-03-07T13:11:33;2.10;;;0.90;;
35606;SDS011;21729;58.392;15.656;2023-03-07T13:14:01;1.15;;;0.80;;
35606;SDS011;21729;58.392;15.656;2023-03-07T13:16:30;1.10;;;0.80;;
35606;SDS011;21729;58.392;15.656;2023-03-07T13:22:00;1.57;;;1.00;;
35606;SDS011;21729;58.392;15.656;2023-03-07T13:24:31;2.20;;;1.10;;
35606;SDS011;21729;58.392;15.656;2023-03-07T13:27:00;1.38;;;1.10;;
35606;SDS011;21729;58.392;15.656;2023-03-07T13:32:56;1.30;;;1.05;;
35606;SDS011;21729;58.392;15.656;2023-03-07T13:38:32;2.10;;;0.90;;
35606;SDS011;21729;58.392;15.656;2023-03-07T13:41:07;1.77;;;0.90;;
35606;SDS011;21729;58.392;15.656;2023-03-07T13:46:27;1.98;;;0.90;;
35606;SDS011;21729;58.392;15.656;2023-03-07T13:49:35;2.58;;;1.10;;
35606;SDS011;21729;58.392;15.656;2023-03-07T13:58:05;1.27;;;1.00;;
35606;SDS011;21729;58.392;15.656;2023-03-07T14:00:48;1.42;;;1.10;;
35606;SDS011;21729;58.392;15.656;2023-03-07T14:03:28;1.45;;;1.10;;
35606;SDS011;21729;58.392;15.656;2023-03-07T14:06:01;1.70;;;1.00;;
35606;SDS011;21729;58.392;15.656;2023-03-07T14:08:34;2.40;;;1.02;;
35606;SDS011;21729;58.392;15.656;2023-03-07T14:11:02;2.85;;;1.10;;
35606;SDS011;21729;58.392;15.656;2023-03-07T14:16:27;1.70;;;1.10;;
35606;SDS011;21729;58.392;15.656;2023-03-07T14:19:17;3.65;;;1.30;;
35606;SDS011;21729;58.392;15.656;2023-03-07T14:22:00;2.33;;;1.02;;
35606;SDS011;21729;58.392;15.656;2023-03-07T14:24:39;2.58;;;0.93;;
35606;SDS011;21729;58.392;15.656;2023-03-07T14:27:17;2.40;;;1.00;;
35606;SDS011;21729;58.392;15.656;2023-03-07T14:29:47;4.57;;;1.02;;
35606;SDS011;21729;58.392;15.656;2023-03-07T14:32:22;1.33;;;0.90;;
35606;SDS011;21729;58.392;15.656;2023-03-07T14:34:52;1.20;;;0.98;;
35606;SDS011;21729;58.392;15.656;2023-03-07T14:37:22;1.50;;;1.00;;
35606;SDS011;21729;58.392;15.656;2023-03-07T14:39:56;2.08;;;0.98;;
35606;SDS011;21729;58.392;15.656;2023-03-07T14:42:45;5.90;;;1.40;;
35606;SDS011;21729;58.392;15.656;2023-03-07T14:45:19;1.97;;;0.90;;
35606;SDS011;21729;58.392;15.656;2023-03-07T14:51:04;1.13;;;1.00;;
35606;SDS011;21729;58.392;15.656;2023-03-07T14:53:38;1.10;;;1.00;;
35606;SDS011;21729;58.392;15.656;2023-03-07T14:56:06;1.25;;;0.80;;
35606;SDS011;21729;58.392;15.656;2023-03-07T14:58:35;2.28;;;1.00;;
35606;SDS011;21729;58.392;15.656;2023-03-07T15:01:13;1.88;;;1.02;;
35606;SDS011;21729;58.392;15.656;2023-03-07T15:03:43;1.10;;;1.00;;
35606;SDS011;21729;58.392;15.656;2023-03-07T15:06:12;3.92;;;1.02;;
35606;SDS011;21729;58.392;15.656;2023-03-07T15:08:42;2.13;;;1.00;;
35606;SDS011;21729;58.392;15.656;2023-03-07T15:11:11;1.15;;;0.88;;
35606;SDS011;21729;58.392;15.656;2023-03-07T15:13:46;1.30;;;0.95;;
35606;SDS011;21729;58.392;15.656;2023-03-07T15:16:17;2.47;;;1.10;;
35606;SDS011;21729;58.392;15.656;2023-03-07T15:18:48;2.25;;;1.08;;
35606;SDS011;21729;58.392;15.656;2023-03-07T15:21:19;1.67;;;1.23;;
35606;SDS011;21729;58.392;15.656;2023-03-07T15:23:53;2.63;;;1.20;;
35606;SDS011;21729;58.392;15.656;2023-03-07T15:26:22;2.95;;;1.45;;
35606;SDS011;21729;58.392;15.656;2023-03-07T15:28:56;3.88;;;1.20;;